KLBX

Texas Gulf Coast Regional Airport

Angleton/Lake Jackson, Texas, USA
METAR KLBX 230253Z AUTO 13003KT 10SM CLR 26/22 A2997 RMK AO2 SLP148 T02560222 53016
Observed Flight Rules
May-23 @ 02:53 UTC (13 minutes ago) Visual Flight Rules
Wind Visibility Clouds
130° at 3 knots 10 miles
  • Clear skies
Temperatures Readings
Current 26°C / 79°F
Dewpoint 22°C / 72°F
Humidity 79%
Altimeter 29.97" Hg
Pressure 1014.8 hPa
Elevation 6
METAR KLBX 230253Z AUTO 13003KT 10SM CLR 26/22 A2997 RMK AO2 SLP148 T02560222 53016
Observed Flight Rules
May-23 @ 02:53 UTC
(13 minutes ago)
VFR
Wind Visibility
130° at 3 knots 10 miles
Clouds
  • Clear skies
Temperature Dewpoint
26°C / 79°F 22°C / 72°F
Humidity Altimeter Pressure
79% 29.97" Hg 1014.8 hPa